Time;durP1;ratioP1;P1;durP2;ratioP2;P2;SDS_P1;SDS_P2;PMS_P1;PMS_P2;Temp;Humidity;BMP_temperature;BMP_pressure;BME280_temperature;BME280_humidity;BME280_pressure;Samples;Min_cycle;Max_cycle;Signal;HPM_P1;HPM_P2
2022/09/28 00:00:11;;;;;;;9.48;7.82;;;;;;;9.62;100.00;98797.03;5251862;28;20043;-73
2022/09/28 00:02:42;;;;;;;11.27;8.85;;;;;;;9.65;100.00;98790.81;5253137;28;20047;-73
2022/09/28 00:05:12;;;;;;;12.48;8.45;;;;;;;9.74;100.00;98787.63;5251452;28;20039;-74
2022/09/28 00:07:43;;;;;;;10.13;7.70;;;;;;;9.70;100.00;98791.38;5252115;28;20020;-74
2022/09/28 00:10:13;;;;;;;9.30;7.35;;;;;;;9.70;100.00;98788.75;5251023;28;20473;-73
2022/09/28 00:12:43;;;;;;;13.13;7.43;;;;;;;9.62;100.00;98785.78;5250970;28;20515;-74
2022/09/28 00:15:14;;;;;;;10.38;7.93;;;;;;;9.57;100.00;98785.19;5252777;28;20363;-73
2022/09/28 00:17:44;;;;;;;9.07;6.80;;;;;;;9.65;100.00;98773.38;5250548;28;20028;-74
2022/09/28 00:20:16;;;;;;;9.18;6.72;;;;;;;9.71;100.00;98772.16;5253294;28;20381;-73
2022/09/28 00:22:46;;;;;;;8.77;6.20;;;;;;;9.74;100.00;98778.06;5251190;28;20032;-74
2022/09/28 00:25:16;;;;;;;8.35;6.90;;;;;;;9.61;100.00;98774.50;5252395;28;20432;-73
2022/09/28 00:27:50;;;;;;;8.32;6.35;;;;;;;9.62;100.00;98767.53;5251339;28;20028;-73
2022/09/28 00:30:20;;;;;;;9.10;6.68;;;;;;;9.47;100.00;98765.84;5251835;28;20037;-74
2022/09/28 00:32:50;;;;;;;9.13;6.80;;;;;;;9.37;100.00;98762.09;5250135;28;20031;-74
2022/09/28 00:35:21;;;;;;;9.52;6.72;;;;;;;9.19;100.00;98757.97;5253746;28;20032;-74
2022/09/28 00:37:51;;;;;;;10.23;6.63;;;;;;;9.11;100.00;98747.19;5252808;28;20047;-74
2022/09/28 00:40:21;;;;;;;9.70;6.80;;;;;;;9.12;100.00;98743.63;5252622;28;20116;-73
2022/09/28 00:42:52;;;;;;;8.30;6.05;;;;;;;9.10;100.00;98735.03;5250796;28;20283;-73
2022/09/28 00:45:25;;;;;;;8.77;6.03;;;;;;;9.10;100.00;98745.47;5248912;28;20042;-73
2022/09/28 00:47:57;;;;;;;8.48;5.85;;;;;;;9.14;100.00;98741.78;5245200;28;20510;-73
2022/09/28 00:50:30;;;;;;;9.20;5.88;;;;;;;9.05;100.00;98741.47;5249067;28;20024;-73
2022/09/28 00:53:09;;;;;;;9.15;5.93;;;;;;;9.03;100.00;98741.56;5256707;28;20024;-74
2022/09/28 00:55:48;;;;;;;10.43;6.38;;;;;;;8.94;100.00;98730.84;5249932;28;20047;-73
2022/09/28 00:58:27;;;;;;;8.85;5.95;;;;;;;8.91;100.00;98738.84;5251451;28;20522;-73
2022/09/28 01:00:59;;;;;;;12.55;5.45;;;;;;;8.87;100.00;98734.75;5252847;28;20051;-74
2022/09/28 01:03:29;;;;;;;9.35;5.82;;;;;;;8.91;100.00;98731.03;5250173;28;20558;-73
2022/09/28 01:06:02;;;;;;;8.45;5.57;;;;;;;8.81;100.00;98725.50;5252822;28;20393;-74
2022/09/28 01:08:34;;;;;;;6.88;5.78;;;;;;;8.83;100.00;98730.59;5252680;28;20476;-73
2022/09/28 01:11:04;;;;;;;8.70;6.22;;;;;;;8.82;100.00;98721.97;5248995;28;20028;-73
2022/09/28 01:13:35;;;;;;;7.40;5.63;;;;;;;8.78;100.00;98723.09;5254051;28;20028;-74
2022/09/28 01:16:19;;;;;;;9.07;5.97;;;;;;;8.81;100.00;98717.69;5249440;28;20494;-73
2022/09/28 01:19:36;;;;;;;8.05;5.20;;;;;;;8.69;100.00;98709.75;5251173;28;20081;-73
2022/09/28 01:22:18;;;;;;;8.00;5.70;;;;;;;8.75;100.00;98707.63;5249247;28;20271;-73
2022/09/28 01:25:04;;;;;;;8.45;5.30;;;;;;;8.72;100.00;98704.38;5250360;28;20024;-73
2022/09/28 01:27:43;;;;;;;7.72;4.50;;;;;;;8.64;100.00;98699.59;5248934;28;20077;-73
2022/09/28 01:30:17;;;;;;;7.03;4.88;;;;;;;8.59;100.00;98706.00;5249964;28;20028;-73
2022/09/28 01:33:07;;;;;;;6.03;4.57;;;;;;;8.48;100.00;98693.59;5251718;28;20031;-73
2022/09/28 01:35:50;;;;;;;8.50;4.90;;;;;;;8.56;100.00;98695.75;5249107;28;20031;-73
2022/09/28 01:38:29;;;;;;;9.68;5.28;;;;;;;8.47;100.00;98684.13;5234793;28;20035;-74
2022/09/28 01:41:00;;;;;;;9.48;5.00;;;;;;;8.34;100.00;98677.94;5250200;28;20092;-73
2022/09/28 01:43:36;;;;;;;8.23;5.50;;;;;;;8.27;100.00;98683.56;5279121;22;20107;-78
2022/09/28 01:46:14;;;;;;;9.95;5.85;;;;;;;8.18;100.00;98671.91;5207396;28;20033;-77
2022/09/28 01:49:04;;;;;;;9.18;5.30;;;;;;;8.18;100.00;98673.69;5195660;28;20017;-78
2022/09/28 01:51:40;;;;;;;7.75;5.72;;;;;;;8.06;100.00;98675.16;5219679;28;20021;-78
2022/09/28 01:54:16;;;;;;;7.53;5.40;;;;;;;7.89;100.00;98667.44;5216746;28;20029;-78
2022/09/28 01:56:49;;;;;;;;;;;;;;;7.82;100.00;98671.31;5221675;28;20036;-78
2022/09/28 01:59:46;;;;;;;7.93;6.03;;;;;;;7.82;100.00;98671.31;5224272;28;19916;-78
2022/09/28 02:02:22;;;;;;;7.22;5.63;;;;;;;7.75;100.00;98666.53;5221478;28;20025;-78
2022/09/28 02:04:55;;;;;;;;;;;;;;;7.79;100.00;98666.28;5224612;28;20013;-78
2022/09/28 02:07:41;;;;;;;8.95;5.60;;;;;;;7.81;100.00;98664.44;5229813;28;19961;-77
2022/09/28 02:10:23;;;;;;;8.82;6.50;;;;;;;7.81;100.00;98667.03;5213795;28;20112;-77
2022/09/28 02:13:03;;;;;;;9.00;6.55;;;;;;;7.83;100.00;98660.00;5213044;28;20029;-78
2022/09/28 02:15:56;;;;;;;8.95;6.82;;;;;;;7.94;100.00;98657.66;5215487;28;20112;-78
2022/09/28 02:18:26;;;;;;;8.10;6.20;;;;;;;7.93;100.00;98650.78;5229147;28;20308;-78
2022/09/28 02:21:05;;;;;;;9.90;6.43;;;;;;;7.98;100.00;98648.75;5224735;28;20025;-78
2022/09/28 02:23:38;;;;;;;8.65;6.88;;;;;;;7.94;100.00;98655.06;5227768;28;20024;-78
2022/09/28 02:26:12;;;;;;;10.15;6.30;;;;;;;7.94;100.00;98651.59;5223319;28;20066;-78
2022/09/28 02:28:42;;;;;;;8.43;6.57;;;;;;;8.07;100.00;98645.63;5223230;28;20021;-78
2022/09/28 02:31:12;;;;;;;9.80;6.32;;;;;;;8.02;100.00;98642.44;5223031;28;20060;-78
2022/09/28 02:33:45;;;;;;;9.38;6.47;;;;;;;7.85;100.00;98642.53;5222745;28;20629;-77
2022/09/28 02:36:15;;;;;;;10.43;6.38;;;;;;;7.94;100.00;98649.00;5223496;28;20029;-78
2022/09/28 02:38:46;;;;;;;7.47;6.03;;;;;;;7.95;100.00;98646.31;5233937;28;20035;-78
2022/09/28 02:41:45;;;;;;;11.80;7.50;;;;;;;8.07;100.00;98645.63;5223382;28;20021;-78
2022/09/28 02:44:53;;;;;;;11.60;7.60;;;;;;;8.12;100.00;98647.97;5201034;28;20032;-78
2022/09/28 02:47:35;;;;;;;10.60;6.28;;;;;;;8.04;100.00;98643.19;5220890;28;20021;-77
2022/09/28 02:50:12;;;;;;;9.38;6.72;;;;;;;7.95;100.00;98641.13;5225140;28;20039;-78
2022/09/28 02:53:05;;;;;;;9.63;6.43;;;;;;;8.07;100.00;98642.19;5223295;28;20020;-78
2022/09/28 02:55:49;;;;;;;9.02;6.50;;;;;;;8.07;100.00;98637.81;5217669;28;20022;-78
2022/09/28 02:58:26;;;;;;;10.43;7.25;;;;;;;8.13;100.00;98639.25;5200174;28;20103;-78
2022/09/28 03:01:06;;;;;;;9.13;6.10;;;;;;;8.05;100.00;98631.88;5222053;28;20063;-78
2022/09/28 03:03:47;;;;;;;7.07;5.82;;;;;;;8.00;100.00;98635.63;5217939;28;20115;-78
2022/09/28 03:06:32;;;;;;;11.52;5.80;;;;;;;8.09;100.00;98632.53;5223576;28;20024;-77
2022/09/28 03:09:03;;;;;;;8.73;6.18;;;;;;;8.04;100.00;98629.38;5230703;28;20025;-77
2022/09/28 03:11:48;;;;;;;14.27;6.03;;;;;;;7.94;100.00;98631.66;5201451;28;20057;-79
2022/09/28 03:14:19;;;;;;;8.17;6.43;;;;;;;8.04;100.00;98624.97;5219869;28;20036;-78
2022/09/28 03:16:50;;;;;;;12.13;6.60;;;;;;;8.07;100.00;98630.00;5221685;28;20029;-78
2022/09/28 03:19:26;;;;;;;7.78;5.93;;;;;;;8.08;100.00;98626.47;5232101;28;20031;-78
2022/09/28 03:21:56;;;;;;;8.50;5.82;;;;;;;8.13;100.00;98626.22;5223775;28;20475;-78
2022/09/28 03:24:26;;;;;;;10.70;5.72;;;;;;;8.30;100.00;98620.94;5221881;28;20035;-78
2022/09/28 03:26:56;;;;;;;8.75;5.50;;;;;;;8.22;100.00;98621.38;5221687;28;20036;-78
2022/09/28 03:29:30;;;;;;;8.93;5.05;;;;;;;8.25;100.00;98622.97;5216161;28;20485;-78
2022/09/28 03:32:00;;;;;;;8.65;5.47;;;;;;;8.24;100.00;98613.50;5210644;28;20120;-77
2022/09/28 03:34:31;;;;;;;7.32;4.90;;;;;;;8.28;100.00;98618.44;5212965;28;20127;-78
2022/09/28 03:37:01;;;;;;;6.20;5.03;;;;;;;8.42;100.00;98618.44;5217377;28;20075;-77
2022/09/28 03:39:31;;;;;;;7.38;4.82;;;;;;;8.15;100.00;98611.38;5230911;28;20110;-78
2022/09/28 03:42:01;;;;;;;8.10;5.30;;;;;;;8.09;100.00;98607.38;5222146;28;20096;-78
2022/09/28 03:44:32;;;;;;;6.05;4.85;;;;;;;8.06;100.00;98604.94;5221044;28;20021;-78
2022/09/28 03:47:02;;;;;;;7.50;4.68;;;;;;;8.12;100.00;98602.00;5220840;28;20166;-78
2022/09/28 03:49:33;;;;;;;6.82;5.07;;;;;;;8.19;100.00;98600.75;5222673;28;20032;-78
2022/09/28 03:52:04;;;;;;;10.43;5.07;;;;;;;8.17;100.00;98601.72;5212386;28;20025;-77
2022/09/28 03:54:34;;;;;;;6.30;4.70;;;;;;;8.13;100.00;98598.47;5208324;28;20036;-77
2022/09/28 03:57:05;;;;;;;8.65;5.50;;;;;;;7.97;100.00;98600.25;5219563;28;20029;-78
2022/09/28 03:59:36;;;;;;;9.23;5.35;;;;;;;8.08;100.00;98587.47;5213482;28;20028;-78
2022/09/28 04:02:06;;;;;;;7.40;5.07;;;;;;;8.13;100.00;98589.81;5209306;28;20091;-76
2022/09/28 04:04:37;;;;;;;8.75;6.13;;;;;;;8.15;100.00;98591.41;5212993;28;20262;-78
2022/09/28 04:07:07;;;;;;;7.75;5.63;;;;;;;8.07;100.00;98585.78;5213838;28;20032;-78
2022/09/28 04:09:37;;;;;;;8.05;5.43;;;;;;;8.29;100.00;98588.88;5219762;28;20021;-79
2022/09/28 04:12:07;;;;;;;9.43;5.40;;;;;;;8.27;100.00;98585.53;5219980;28;20636;-78
2022/09/28 04:14:38;;;;;;;9.40;5.68;;;;;;;8.38;100.00;98582.31;5210060;28;20025;-78
2022/09/28 04:17:08;;;;;;;8.32;5.63;;;;;;;8.31;100.00;98571.41;5208840;28;20075;-78
2022/09/28 04:19:38;;;;;;;8.95;5.20;;;;;;;8.31;100.00;98576.63;5209145;28;20079;-78
2022/09/28 04:22:09;;;;;;;6.32;4.65;;;;;;;8.41;100.00;98577.75;5207405;28;20021;-77
2022/09/28 04:24:42;;;;;;;7.25;4.90;;;;;;;8.37;100.00;98578.84;5210519;28;20017;-78
2022/09/28 04:30:01;;;;;;;7.05;5.22;;;;;;;8.47;100.00;98576.56;5226715;28;20058;-78
2022/09/28 04:32:31;;;;;;;8.75;5.25;;;;;;;8.50;100.00;98574.63;5220309;28;20025;-78
2022/09/28 04:35:02;;;;;;;7.35;5.45;;;;;;;8.56;100.00;98576.84;5221178;28;20024;-78
2022/09/28 04:37:32;;;;;;;8.93;5.20;;;;;;;8.68;100.00;98570.91;5227643;28;20105;-77
2022/09/28 04:40:03;;;;;;;11.65;5.35;;;;;;;8.55;100.00;98569.97;5226753;28;20092;-78
2022/09/28 04:42:33;;;;;;;7.75;5.72;;;;;;;8.53;100.00;98576.22;5220870;28;20202;-78
2022/09/28 04:45:04;;;;;;;10.10;6.63;;;;;;;8.62;100.00;98570.44;5220808;28;20024;-77
2022/09/28 04:47:34;;;;;;;8.43;5.90;;;;;;;8.60;100.00;98573.16;5220105;28;20079;-78
2022/09/28 04:50:05;;;;;;;8.80;6.50;;;;;;;8.56;100.00;98569.03;5220991;28;20039;-78
2022/09/28 04:52:36;;;;;;;10.13;6.00;;;;;;;8.66;100.00;98564.97;5216435;28;20291;-78
2022/09/28 04:55:10;;;;;;;10.90;6.35;;;;;;;8.63;100.00;98559.94;5220479;28;20435;-78
2022/09/28 04:57:41;;;;;;;12.02;6.45;;;;;;;8.61;100.00;98571.38;5229003;28;20055;-78
2022/09/28 05:00:12;;;;;;;9.13;5.88;;;;;;;8.57;100.00;98565.50;5223828;28;20029;-78
2022/09/28 05:02:42;;;;;;;7.47;5.97;;;;;;;8.55;100.00;98566.53;5209812;28;20076;-78
2022/09/28 05:05:12;;;;;;;10.13;6.18;;;;;;;8.50;100.00;98565.94;5212143;28;20048;-78
2022/09/28 05:07:44;;;;;;;10.60;6.43;;;;;;;8.52;100.00;98567.53;5224554;28;20123;-78
2022/09/28 05:10:15;;;;;;;10.52;6.43;;;;;;;8.52;100.00;98559.75;5223983;28;20025;-78
2022/09/28 05:12:45;;;;;;;10.93;6.13;;;;;;;8.64;100.00;98564.22;5210051;28;20395;-78
2022/09/28 05:15:15;;;;;;;11.05;6.88;;;;;;;8.63;100.00;98564.31;5210704;28;20032;-78
2022/09/28 05:17:46;;;;;;;14.45;6.85;;;;;;;8.62;100.00;98560.88;5209572;28;20108;-78
2022/09/28 05:20:16;;;;;;;9.68;5.93;;;;;;;8.72;100.00;98563.75;5208682;28;20028;-78
2022/09/28 05:22:46;;;;;;;8.15;6.25;;;;;;;8.70;100.00;98565.63;5211410;28;20450;-79
2022/09/28 05:25:17;;;;;;;8.98;6.70;;;;;;;8.87;100.00;98561.06;5207233;28;20025;-78
2022/09/28 05:27:54;;;;;;;13.98;6.43;;;;;;;8.73;100.00;98562.84;5215892;28;20039;-78
2022/09/28 05:30:24;;;;;;;10.95;6.22;;;;;;;8.81;100.00;98566.66;5212572;28;20020;-79
2022/09/28 05:32:55;;;;;;;8.35;6.22;;;;;;;8.84;100.00;98558.66;5190865;28;20033;-78
2022/09/28 05:35:25;;;;;;;10.13;6.47;;;;;;;8.77;100.00;98559.97;5213779;28;20037;-79
2022/09/28 05:37:56;;;;;;;8.20;6.60;;;;;;;8.65;100.00;98565.91;5227640;28;20024;-79
2022/09/28 05:40:26;;;;;;;10.10;7.03;;;;;;;8.73;100.00;98558.44;5229856;28;20044;-79
2022/09/28 05:43:01;;;;;;;11.40;6.88;;;;;;;8.74;100.00;98562.72;5224354;28;20421;-79
2022/09/28 05:45:31;;;;;;;9.40;7.25;;;;;;;8.64;100.00;98559.03;5224486;28;20021;-79
2022/09/28 05:48:01;;;;;;;11.85;7.13;;;;;;;8.69;100.00;98564.78;5223984;28;20035;-79
2022/09/28 05:50:32;;;;;;;13.07;7.15;;;;;;;8.64;100.00;98563.38;5223524;28;20216;-79
2022/09/28 05:53:07;;;;;;;9.73;7.00;;;;;;;8.53;100.00;98566.63;5223607;28;20027;-79
2022/09/28 05:55:38;;;;;;;11.32;7.30;;;;;;;8.59;100.00;98555.00;5219403;28;20169;-79
2022/09/28 05:58:09;;;;;;;11.55;6.85;;;;;;;8.65;100.00;98563.28;5231820;28;20107;-78
2022/09/28 06:00:39;;;;;;;8.65;6.28;;;;;;;8.61;100.00;98558.34;5228035;28;20052;-79
2022/09/28 06:03:11;;;;;;;10.50;6.72;;;;;;;8.57;100.00;98564.69;5224011;28;20029;-79
2022/09/28 06:05:42;;;;;;;9.48;6.72;;;;;;;8.52;100.00;98559.75;5223454;28;20032;-79
2022/09/28 06:08:12;;;;;;;12.32;7.78;;;;;;;8.61;100.00;98554.00;5231690;28;20394;-77
2022/09/28 06:10:43;;;;;;;10.95;6.90;;;;;;;8.68;100.00;98563.09;5227639;28;20028;-76
2022/09/28 06:13:13;;;;;;;11.50;6.65;;;;;;;8.66;100.00;98559.75;5223267;28;20544;-78
2022/09/28 06:15:45;;;;;;;11.52;6.57;;;;;;;8.57;100.00;98559.47;5223624;28;20065;-79
2022/09/28 06:18:15;;;;;;;9.30;5.95;;;;;;;8.70;100.00;98557.81;5222644;28;20060;-79
2022/09/28 06:20:45;;;;;;;9.57;6.15;;;;;;;8.72;100.00;98553.34;5223528;28;20106;-79
2022/09/28 06:23:16;;;;;;;7.85;5.43;;;;;;;8.74;100.00;98565.31;5223557;28;20029;-79
2022/09/28 06:25:46;;;;;;;8.73;5.78;;;;;;;8.70;100.00;98563.84;5201726;28;20029;-79
2022/09/28 06:28:16;;;;;;;8.52;5.78;;;;;;;8.72;100.00;98567.19;5224017;28;20035;-79
2022/09/28 06:30:47;;;;;;;11.52;6.05;;;;;;;8.73;100.00;98571.47;5219890;28;20119;-79
2022/09/28 06:33:17;;;;;;;9.45;5.53;;;;;;;8.68;100.00;98565.72;5197251;28;20028;-79
2022/09/28 06:35:47;;;;;;;9.23;5.20;;;;;;;8.65;100.00;98567.66;5212185;28;20492;-80
2022/09/28 06:38:18;;;;;;;9.85;5.40;;;;;;;8.70;100.00;98563.84;5213262;28;20042;-79
2022/09/28 06:40:48;;;;;;;8.35;5.35;;;;;;;8.75;100.00;98567.00;5213066;28;20096;-79
2022/09/28 06:43:19;;;;;;;9.30;5.55;;;;;;;8.77;100.00;98570.38;5188668;28;20025;-79
2022/09/28 06:45:52;;;;;;;11.95;5.13;;;;;;;8.92;100.00;98568.59;5191596;28;20479;-80
2022/09/28 06:48:22;;;;;;;8.02;5.05;;;;;;;8.85;100.00;98565.53;5189444;28;20200;-79
2022/09/28 06:50:52;;;;;;;11.00;5.05;;;;;;;8.82;100.00;98573.53;5229093;28;20040;-80
2022/09/28 06:53:22;;;;;;;8.27;4.75;;;;;;;8.86;100.00;98571.59;5205677;28;20391;-79
2022/09/28 06:55:54;;;;;;;9.65;4.72;;;;;;;8.93;100.00;98568.50;5220981;28;20035;-79
2022/09/28 06:58:27;;;;;;;8.63;4.78;;;;;;;8.90;100.00;98570.47;5223868;28;20051;-80
2022/09/28 07:00:58;;;;;;;9.65;5.25;;;;;;;9.01;100.00;98566.28;5216970;28;20029;-79
2022/09/28 07:03:28;;;;;;;9.63;5.05;;;;;;;8.91;100.00;98565.13;5192444;28;20045;-79
2022/09/28 07:05:58;;;;;;;6.18;4.30;;;;;;;9.18;100.00;98563.47;5216525;28;20067;-80
2022/09/28 07:08:29;;;;;;;8.15;4.43;;;;;;;9.11;100.00;98567.38;5210535;28;20108;-80
2022/09/28 07:11:04;;;;;;;7.68;3.90;;;;;;;9.37;100.00;98566.59;5212969;28;20067;-79
2022/09/28 07:13:36;;;;;;;8.80;3.88;;;;;;;9.47;100.00;98572.91;5209566;28;20025;-79
2022/09/28 07:16:06;;;;;;;8.20;3.75;;;;;;;9.59;100.00;98569.50;5217816;28;20029;-79
2022/09/28 07:18:37;;;;;;;8.93;3.95;;;;;;;9.40;100.00;98572.47;5221666;28;20453;-79
2022/09/28 07:21:07;;;;;;;6.82;3.78;;;;;;;9.56;100.00;98578.38;5231362;28;20032;-79
2022/09/28 07:23:37;;;;;;;6.05;3.70;;;;;;;9.74;100.00;98585.03;5225850;28;20060;-79
2022/09/28 07:26:08;;;;;;;5.90;3.28;;;;;;;9.80;100.00;98582.03;5222331;28;20021;-79
2022/09/28 07:28:40;;;;;;;5.97;3.25;;;;;;;9.79;100.00;98589.97;5233784;28;20024;-79
2022/09/28 07:31:10;;;;;;;7.40;3.50;;;;;;;9.77;100.00;98587.44;5222193;28;20031;-79
2022/09/28 07:33:40;;;;;;;6.38;3.15;;;;;;;9.77;100.00;98582.22;5226121;28;20025;-79
2022/09/28 07:36:11;;;;;;;6.63;2.83;;;;;;;9.89;100.00;98596.25;5204113;28;20025;-77
2022/09/28 07:38:42;;;;;;;6.10;2.70;;;;;;;9.83;100.00;98589.66;5222394;28;20025;-80
2022/09/28 07:41:15;;;;;;;6.60;2.95;;;;;;;9.78;100.00;98588.25;5225075;28;20020;-79
2022/09/28 07:43:46;;;;;;;6.25;3.10;;;;;;;10.07;100.00;98589.88;5247768;22;20025;-75
2022/09/28 07:46:16;;;;;;;7.88;3.28;;;;;;;10.18;100.00;98596.06;5172639;28;20038;-76
2022/09/28 07:48:50;;;;;;;4.53;2.47;;;;;;;10.05;100.00;98599.56;5173008;28;20025;-76
2022/09/28 07:51:21;;;;;;;3.85;2.42;;;;;;;10.16;100.00;98597.94;5189759;28;20029;-76
2022/09/28 07:53:53;;;;;;;5.43;2.08;;;;;;;10.00;100.00;98606.84;5198560;28;20025;-76
2022/09/28 07:56:24;;;;;;;5.50;2.10;;;;;;;9.91;100.00;98602.19;5202977;28;20028;-76
2022/09/28 07:58:54;;;;;;;2.88;2.05;;;;;;;10.08;100.00;98597.63;5210418;28;20029;-77
2022/09/28 08:01:25;;;;;;;4.00;2.13;;;;;;;9.97;100.00;98607.88;5200738;28;20039;-77
2022/09/28 08:03:55;;;;;;;4.05;1.90;;;;;;;9.95;100.00;98606.28;5183014;28;20099;-78
2022/09/28 08:06:25;;;;;;;5.75;1.80;;;;;;;10.03;100.00;98611.88;5199681;28;20033;-75
2022/09/28 08:08:58;;;;;;;3.67;2.17;;;;;;;9.91;100.00;98610.03;5182596;28;20029;-77
2022/09/28 08:11:29;;;;;;;6.32;3.88;;;;;;;10.04;100.00;98614.41;5200353;28;20379;-76
2022/09/28 08:13:59;;;;;;;25.55;22.33;;;;;;;9.94;100.00;98609.81;5200221;28;20101;-77
2022/09/28 08:16:30;;;;;;;4.57;2.60;;;;;;;10.02;100.00;98610.22;5200258;28;20549;-77
2022/09/28 08:19:00;;;;;;;11.13;8.35;;;;;;;9.99;100.00;98618.22;5200505;28;20025;-76
2022/09/28 08:21:45;;;;;;;3.58;2.17;;;;;;;10.00;100.00;98619.88;5212641;28;20486;-78
2022/09/28 08:24:16;;;;;;;3.15;1.40;;;;;;;10.16;100.00;98616.22;5197543;28;20025;-77
2022/09/28 08:26:47;;;;;;;2.35;1.00;;;;;;;10.26;100.00;98622.50;5204109;28;20502;-77
2022/09/28 08:29:17;;;;;;;3.45;1.42;;;;;;;10.15;100.00;98618.94;5208884;28;20035;-76
2022/09/28 08:31:47;;;;;;;3.85;1.25;;;;;;;10.17;100.00;98630.94;5182945;28;20625;-77
2022/09/28 08:34:18;;;;;;;2.25;1.40;;;;;;;10.26;100.00;98621.66;5199824;28;20021;-77
2022/09/28 08:36:49;;;;;;;2.47;1.40;;;;;;;10.12;100.00;98622.56;5199282;28;20109;-77
2022/09/28 08:39:19;;;;;;;3.88;1.58;;;;;;;10.24;100.00;98628.75;5197107;28;20108;-76
2022/09/28 08:42:03;;;;;;;4.45;1.83;;;;;;;10.18;100.00;98632.59;5196234;28;20043;-77
2022/09/28 08:44:41;;;;;;;5.30;2.30;;;;;;;10.13;100.00;98629.47;5173340;28;20025;-76
2022/09/28 08:50:30;;;;;;;2.67;1.63;;;;;;;10.16;100.00;98638.88;5196593;28;20123;-77
2022/09/28 08:53:23;;;;;;;7.60;4.63;;;;;;;10.10;100.00;98639.25;5191074;28;20033;-77
2022/09/28 08:55:54;;;;;;;5.22;2.63;;;;;;;9.98;100.00;98643.47;5190448;28;20022;-76
2022/09/28 08:58:33;;;;;;;6.28;3.45;;;;;;;10.18;100.00;98643.03;5198615;28;20522;-77
2022/09/28 09:01:06;;;;;;;7.45;4.43;;;;;;;10.16;100.00;98639.69;5177761;28;20647;-77
2022/09/28 09:03:41;;;;;;;6.43;4.22;;;;;;;10.23;100.00;98643.59;5194863;28;20068;-77
2022/09/28 09:06:41;;;;;;;3.10;1.15;;;;;;;10.36;100.00;98643.63;5193190;28;20032;-75
2022/09/28 09:09:50;;;;;;;11.30;6.50;;;;;;;10.30;100.00;98660.53;5192171;28;20021;-76
2022/09/28 09:12:27;;;;;;;9.63;4.78;;;;;;;10.27;100.00;98649.44;5161738;28;20040;-76
2022/09/28 09:15:16;;;;;;;16.75;9.70;;;;;;;10.42;100.00;98648.44;5204722;28;20505;-77
2022/09/28 09:18:05;;;;;;;5.78;3.92;;;;;;;10.44;100.00;98646.56;5201061;28;20040;-76
2022/09/28 09:20:44;;;;;;;2.33;1.20;;;;;;;10.45;100.00;98658.69;5212044;28;20021;-76
2022/09/28 09:23:28;;;;;;;5.90;1.88;;;;;;;10.53;100.00;98656.41;5202800;28;20056;-77
2022/09/28 09:26:09;;;;;;;6.18;3.30;;;;;;;10.40;100.00;98651.19;5203619;28;20083;-75
2022/09/28 09:28:58;;;;;;;2.35;1.40;;;;;;;10.53;100.00;98661.66;5208551;28;20511;-76
2022/09/28 09:31:48;;;;;;;1.75;1.20;;;;;;;10.38;100.00;98657.41;5203306;28;20469;-77
2022/09/28 09:34:44;;;;;;;2.97;1.30;;;;;;;10.31;100.00;98666.59;5201390;28;20021;-77
2022/09/28 09:37:42;;;;;;;2.90;1.00;;;;;;;10.33;100.00;98662.13;5182308;28;20105;-77
2022/09/28 09:40:27;;;;;;;2.20;1.05;;;;;;;10.18;100.00;98665.72;5200418;28;20269;-77
2022/09/28 09:43:09;;;;;;;4.15;2.13;;;;;;;10.03;100.00;98664.06;5203840;28;20495;-76
2022/09/28 09:45:51;;;;;;;2.72;1.40;;;;;;;9.94;100.00;98667.22;5199761;28;20022;-76
2022/09/28 09:48:37;;;;;;;4.50;1.10;;;;;;;10.07;100.00;98673.38;5202847;28;20032;-77
2022/09/28 09:51:30;;;;;;;1.83;1.00;;;;;;;10.25;100.00;98669.59;5205185;28;20022;-78
2022/09/28 09:54:05;;;;;;;3.20;1.55;;;;;;;10.26;100.00;98679.09;5191552;28;20034;-77
2022/09/28 09:56:42;;;;;;;1.80;1.10;;;;;;;10.25;100.00;98678.28;5202241;28;20517;-74
2022/09/28 09:59:36;;;;;;;4.40;1.30;;;;;;;10.29;100.00;98681.50;5193172;28;20068;-74
2022/09/28 10:02:19;;;;;;;3.90;1.00;;;;;;;10.15;100.00;98677.19;5184879;28;20021;-74
2022/09/28 10:04:53;;;;;;;2.53;1.00;;;;;;;9.91;100.00;98678.72;5202629;28;20537;-74
2022/09/28 10:07:47;;;;;;;1.67;0.87;;;;;;;9.92;100.00;98679.53;5202140;28;20029;-75
2022/09/28 10:10:32;;;;;;;3.63;0.80;;;;;;;9.95;100.00;98685.41;5167688;28;20095;-74
2022/09/28 10:13:03;;;;;;;2.75;0.70;;;;;;;9.91;100.00;98686.53;5201713;28;20048;-75
2022/09/28 10:15:34;;;;;;;0.70;0.40;;;;;;;10.13;100.00;98688.66;5184658;28;20219;-74
2022/09/28 10:18:10;;;;;;;1.17;0.52;;;;;;;10.16;100.00;98689.28;5183906;28;20037;-74
2022/09/28 10:20:43;;;;;;;0.93;0.57;;;;;;;10.13;100.00;98691.28;5209046;28;20027;-74
2022/09/28 10:23:25;;;;;;;0.80;0.30;;;;;;;10.10;100.00;98694.06;5206391;28;20024;-74
2022/09/28 10:26:01;;;;;;;1.42;0.40;;;;;;;10.22;100.00;98694.13;5199469;28;20028;-75
2022/09/28 10:28:39;;;;;;;2.83;0.50;;;;;;;10.18;100.00;98692.63;5205699;28;20029;-75
2022/09/28 10:31:33;;;;;;;3.33;0.45;;;;;;;10.15;100.00;98697.22;5189902;28;20103;-74
2022/09/28 10:34:05;;;;;;;1.80;0.50;;;;;;;10.23;100.00;98695.81;5189843;28;20022;-75
2022/09/28 10:37:05;;;;;;;0.65;0.30;;;;;;;10.39;100.00;98700.88;5197649;28;20490;-74
2022/09/28 10:39:43;;;;;;;2.53;0.50;;;;;;;10.38;100.00;98707.84;5194811;28;20487;-74
2022/09/28 10:42:20;;;;;;;1.25;0.40;;;;;;;10.51;100.00;98707.91;5184347;28;20036;-75
2022/09/28 10:44:59;;;;;;;0.95;0.40;;;;;;;10.47;100.00;98711.66;5201755;28;20021;-75
2022/09/28 10:47:31;;;;;;;0.90;0.20;;;;;;;10.56;100.00;98708.44;5202155;28;20113;-74
2022/09/28 10:50:02;;;;;;;2.28;0.40;;;;;;;10.41;100.00;98709.44;5184604;28;20040;-74
2022/09/28 10:52:40;;;;;;;0.20;0.10;;;;;;;10.64;100.00;98706.16;5192255;28;20530;-75
2022/09/28 10:55:31;;;;;;;2.75;0.30;;;;;;;10.69;100.00;98706.72;5198025;28;20033;-74
2022/09/28 10:58:23;;;;;;;2.00;0.70;;;;;;;10.82;100.00;98710.19;5209496;28;20152;-74
2022/09/28 11:01:00;;;;;;;1.88;0.90;;;;;;;10.79;100.00;98715.59;5203975;28;20021;-74
2022/09/28 11:03:31;;;;;;;1.67;0.75;;;;;;;10.84;100.00;98713.53;5202503;28;20136;-74
2022/09/28 11:06:06;;;;;;;1.40;0.80;;;;;;;10.81;100.00;98713.72;5201670;28;20049;-74
2022/09/28 11:08:40;;;;;;;1.10;0.90;;;;;;;10.77;100.00;98715.72;5197328;28;20034;-75
2022/09/28 11:11:13;;;;;;;2.42;1.10;;;;;;;11.05;100.00;98713.78;5184003;28;20361;-75
2022/09/28 11:13:59;;;;;;;3.00;1.52;;;;;;;10.96;100.00;98717.94;5196674;28;20104;-75
2022/09/28 11:16:32;;;;;;;2.05;1.40;;;;;;;10.81;100.00;98721.56;5182479;28;20025;-74
2022/09/28 11:19:25;;;;;;;3.97;1.38;;;;;;;10.74;100.00;98717.69;5184317;28;20040;-75
2022/09/28 11:21:55;;;;;;;3.15;1.05;;;;;;;10.91;100.00;98722.63;5211931;28;20032;-75
2022/09/28 11:24:25;;;;;;;2.67;1.40;;;;;;;11.04;100.00;98719.94;5201294;28;20040;-74
2022/09/28 11:26:58;;;;;;;3.15;1.50;;;;;;;11.08;100.00;98720.59;5187247;28;20037;-74
2022/09/28 11:29:40;;;;;;;1.83;1.38;;;;;;;10.97;100.00;98714.38;5209912;28;20029;-75
2022/09/28 11:32:11;;;;;;;2.58;1.50;;;;;;;11.12;100.00;98724.66;5198123;28;20025;-74
2022/09/28 11:34:45;;;;;;;1.88;1.38;;;;;;;11.00;100.00;98724.66;5201571;28;20070;-75
2022/09/28 11:37:29;;;;;;;3.17;1.75;;;;;;;11.20;100.00;98722.34;5200634;28;20026;-75
2022/09/28 11:40:14;;;;;;;3.35;1.85;;;;;;;11.16;100.00;98721.75;5201289;28;20380;-74
2022/09/28 11:43:03;;;;;;;2.58;1.80;;;;;;;11.43;100.00;98719.03;5180672;28;20440;-74
2022/09/28 11:45:40;;;;;;;3.22;1.80;;;;;;;11.72;100.00;98716.09;5183033;28;20029;-74
2022/09/28 11:48:14;;;;;;;3.50;1.88;;;;;;;11.67;100.00;98717.38;5196794;28;20029;-74
2022/09/28 11:50:53;;;;;;;1.95;1.40;;;;;;;11.96;100.00;98722.22;5209768;28;20571;-75
2022/09/28 11:53:37;;;;;;;2.33;1.48;;;;;;;11.97;100.00;98720.47;5205947;28;20029;-75
2022/09/28 11:56:30;;;;;;;2.50;1.38;;;;;;;12.12;100.00;98728.06;5197225;28;20540;-74
2022/09/28 11:59:26;;;;;;;4.43;1.20;;;;;;;12.00;100.00;98723.72;5191465;28;20029;-74
2022/09/28 12:02:09;;;;;;;1.55;0.75;;;;;;;12.10;100.00;98731.75;5199642;28;20136;-74
2022/09/28 12:04:45;;;;;;;2.00;1.00;;;;;;;12.32;100.00;98732.69;5196843;28;20032;-74
2022/09/28 12:07:31;;;;;;;1.85;1.10;;;;;;;12.05;100.00;98729.44;5200300;28;20104;-74
2022/09/28 12:10:07;;;;;;;;;;;;;;;12.41;100.00;98721.56;5201241;28;20021;-74
2022/09/28 12:13:00;;;;;;;1.30;0.90;;;;;;;12.46;100.00;98729.94;5195885;28;20389;-74